Alps Wideshine — 9HA2472 — position and weather

sailwx.info

Track history (hours):
 
Tides and Currents Weather Stations Pressure Air Temp Water Temp Dewpoint Dewpoint Depression Visibility Wind Speed Wind Dir Waves Ship Positions

Alps Wideshine

Last reported at 2015-Jan-10 00:25 UTC. Time now 2015-Jan-29 14:26 UTC.
Position N 25°32' W 079°58'.
Warning: this ship's position is 19 days out of date.

Length 107 m; draft 5.4 m.

Type: Tanker. MMSI: 248694000.

Date/timePositionNaut miles runAvg speedWind from/ knotsBaromVisibWave heightAir tempDewpointWater temp
2015-Jan-10 00:25N 25°32' W 079°58'8 9.7
2015-Jan-09 23:33N 25°40' W 079°58'10 9.7
2015-Jan-09 22:33N 25°50' W 079°57'1010.0
2015-Jan-09 21:33N 25°60' W 079°57'1110.7
2015-Jan-09 20:33N 26°10' W 079°58'1111.0
2015-Jan-09 19:33N 26°21' W 079°57'1212.0
2015-Jan-09 18:33N 26°33' W 079°57'1110.6
2015-Jan-09 17:31N 26°44' W 079°57'5 0.1
2015-Jan-08 05:16N 26°46' W 080°03'4 6.2
2015-Jan-08 04:32N 26°46' W 079°58'  
Track history (hours):
 
Tides and Currents Weather Stations Pressure Air Temp Water Temp Dewpoint Dewpoint Depression Visibility Wind Speed Wind Dir Waves Ship Positions

Alps Wideshine

Last reported at 2015-Jan-10 00:25 UTC. Time now 2015-Jan-29 14:26 UTC.
Position N 25°32' W 079°58'.
Warning: this ship's position is 19 days out of date.

Length 107 m; draft 5.4 m.

Type: Tanker. MMSI: 248694000.

Date/timePositionNaut miles runAvg speedWind from/ knotsBaromVisibWave heightAir tempDewpointWater temp
2015-Jan-10 00:25N 25°32' W 079°58'8 9.7
2015-Jan-09 23:33N 25°40' W 079°58'10 9.7
2015-Jan-09 22:33N 25°50' W 079°57'1010.0
2015-Jan-09 21:33N 25°60' W 079°57'1110.7
2015-Jan-09 20:33N 26°10' W 079°58'1111.0
2015-Jan-09 19:33N 26°21' W 079°57'1212.0
2015-Jan-09 18:33N 26°33' W 079°57'1110.6
2015-Jan-09 17:31N 26°44' W 079°57'5 0.1
2015-Jan-08 05:16N 26°46' W 080°03'4 6.2
2015-Jan-08 04:32N 26°46' W 079°58'  

Dump ship's entire track history